Terminal Aerodrome Forecast
Issued by NWS

Home | Current Version | Previous Version | Text Only | Print | Product List | Glossary On
Versions: 1 2 3 4 5 6 7 8 9 10 11 12 13 14 15 16 17 18 19 20 21 22 23 24
000
FTUS42 KFFC 172300
TAFRYY
TAF
KRYY 172322Z 1800/1824 10008KT P6SM BKN050 BKN200
     FM180600 09007KT P6SM BKN035
     FM181000 07008KT P6SM BKN025 PROB30 1813/1816 -SHRA BKN015
     FM181600 07010G20KT 5SM SHRA OVC015
      AMD NOT SKED 1804/1812=

USA.gov is the U.S. government's official web portal to all federal, state and local government web resources and services.